createdAt,value
2023-05-05T00:01:49.715Z,9.24
2023-05-05T00:04:57.985Z,9.12
2023-05-05T00:08:06.731Z,9.19
2023-05-05T00:11:15.298Z,9.15
2023-05-05T00:14:23.621Z,9.14
2023-05-05T00:17:33.499Z,9.08
2023-05-05T00:20:41.823Z,9.01
2023-05-05T00:23:49.989Z,9.29
2023-05-05T00:26:58.150Z,9.07
2023-05-05T00:30:08.397Z,9.06
2023-05-05T00:33:18.133Z,9.14
2023-05-05T00:36:26.319Z,9.02
2023-05-05T00:39:35.801Z,8.76
2023-05-05T00:42:46.978Z,8.57
2023-05-05T00:46:02.384Z,8.36
2023-05-05T00:49:12.555Z,8.15
2023-05-05T00:52:21.061Z,8.05
2023-05-05T00:55:30.296Z,7.99
2023-05-05T00:58:38.754Z,7.94
2023-05-05T01:01:47.279Z,7.95
2023-05-05T01:04:56.882Z,7.94
2023-05-05T01:08:30.605Z,7.93
2023-05-05T01:11:52.670Z,7.95
2023-05-05T01:15:11.992Z,7.98
2023-05-05T01:18:32.518Z,7.98
2023-05-05T01:21:50.892Z,7.98
2023-05-05T01:25:19.623Z,7.96
2023-05-05T01:28:46.523Z,7.92
2023-05-05T01:32:02.485Z,7.91
2023-05-05T01:35:19.627Z,7.91
2023-05-05T01:38:36.403Z,7.89
2023-05-05T01:41:50.191Z,7.93
2023-05-05T01:45:00.031Z,8.08
2023-05-05T01:48:12.678Z,8.09
2023-05-05T01:51:24.954Z,8.02
2023-05-05T01:54:35.624Z,7.96
2023-05-05T01:57:46.550Z,7.92
2023-05-05T02:00:58.659Z,8.08
2023-05-05T02:04:10.305Z,8.12
2023-05-05T02:07:20.840Z,8.19
2023-05-05T02:10:31.158Z,8.25
2023-05-05T02:13:43.158Z,8.30
2023-05-05T02:16:59.191Z,8.36
2023-05-05T02:20:13.638Z,8.39
2023-05-05T02:23:21.969Z,8.49
2023-05-05T02:26:34.110Z,8.70
2023-05-05T02:29:49.950Z,8.68
2023-05-05T02:33:07.424Z,8.64
2023-05-05T02:36:22.792Z,8.68
2023-05-05T02:39:43.590Z,8.69
2023-05-05T02:42:59.866Z,8.60
2023-05-05T02:46:12.359Z,8.52
2023-05-05T02:49:24.369Z,8.46
2023-05-05T02:52:40.991Z,8.43
2023-05-05T02:55:54.645Z,8.46
2023-05-05T02:59:16.486Z,8.41
2023-05-05T03:02:38.600Z,8.41
2023-05-05T03:05:57.253Z,8.43
2023-05-05T03:09:15.166Z,8.36
2023-05-05T03:12:38.511Z,8.31
2023-05-05T03:15:58.563Z,8.33
2023-05-05T03:19:12.341Z,8.30
2023-05-05T03:22:22.529Z,8.23
2023-05-05T03:25:48.625Z,8.20
2023-05-05T03:29:17.628Z,8.15
2023-05-05T03:32:27.227Z,8.14
2023-05-05T03:35:36.830Z,8.20
2023-05-05T03:38:48.231Z,8.28
2023-05-05T03:41:57.992Z,8.35
2023-05-05T03:45:10.284Z,8.46
2023-05-05T03:48:19.982Z,8.50
2023-05-05T03:51:29.441Z,8.52
2023-05-05T03:54:39.248Z,8.46
2023-05-05T03:57:49.189Z,8.46
2023-05-05T04:00:57.590Z,8.44
2023-05-05T04:04:06.689Z,8.41
2023-05-05T04:07:15.062Z,8.42
2023-05-05T04:10:23.343Z,8.43
2023-05-05T04:13:33.318Z,8.45
2023-05-05T04:16:42.050Z,8.51
2023-05-05T04:19:51.006Z,8.62
2023-05-05T04:23:00.541Z,8.74
2023-05-05T04:26:09.302Z,8.88
2023-05-05T04:29:19.840Z,9.21
2023-05-05T04:32:28.397Z,9.20
2023-05-05T04:35:37.028Z,9.30
2023-05-05T04:38:45.931Z,9.47
2023-05-05T04:41:54.268Z,9.63
2023-05-05T04:45:03.994Z,9.79
2023-05-05T04:48:12.983Z,9.94
2023-05-05T04:51:21.483Z,10.05
2023-05-05T04:54:29.797Z,10.18
2023-05-05T04:57:39.334Z,10.33
2023-05-05T05:00:49.017Z,10.52
2023-05-05T05:03:57.381Z,10.76
2023-05-05T05:07:05.917Z,10.95
2023-05-05T05:10:14.731Z,11.19
2023-05-05T05:13:23.227Z,11.58
2023-05-05T05:16:33.733Z,11.87
2023-05-05T05:19:42.090Z,12.21
2023-05-05T05:22:50.607Z,12.86
2023-05-05T05:26:01.505Z,13.55
2023-05-05T05:29:11.369Z,13.98
2023-05-05T05:32:21.422Z,14.20
2023-05-05T05:35:30.131Z,14.03
2023-05-05T05:38:38.561Z,14.20
2023-05-05T05:41:47.350Z,14.81
2023-05-05T05:44:56.967Z,15.45
2023-05-05T05:48:07.122Z,15.85
2023-05-05T05:51:15.526Z,16.14
2023-05-05T05:54:23.762Z,15.90
2023-05-05T05:57:32.244Z,15.41
2023-05-05T06:00:40.686Z,15.04
2023-05-05T06:03:52.915Z,15.40
2023-05-05T06:07:02.257Z,17.35
2023-05-05T06:10:26.770Z,18.74
2023-05-05T06:13:41.944Z,20.03
2023-05-05T06:16:50.631Z,22.34
2023-05-05T06:20:02.693Z,23.93
2023-05-05T06:23:11.717Z,23.46
2023-05-05T06:26:24.430Z,23.26
2023-05-05T06:29:32.885Z,23.00
2023-05-05T06:32:41.172Z,23.56
2023-05-05T06:35:53.414Z,21.83
2023-05-05T06:39:01.805Z,20.31
2023-05-05T06:42:10.030Z,21.78
2023-05-05T06:45:18.663Z,22.04
2023-05-05T06:48:28.131Z,22.87
2023-05-05T06:51:38.044Z,23.33
2023-05-05T06:54:46.650Z,22.73
2023-05-05T06:57:54.936Z,23.25
2023-05-05T07:01:03.977Z,23.17
2023-05-05T07:04:12.993Z,23.13
2023-05-05T07:07:22.846Z,23.57
2023-05-05T07:10:31.585Z,22.45
2023-05-05T07:13:40.038Z,22.48
2023-05-05T07:16:48.281Z,22.38
2023-05-05T07:19:56.930Z,22.58
2023-05-05T07:23:06.723Z,21.50
2023-05-05T07:26:15.503Z,21.39
2023-05-05T07:29:23.653Z,20.73
2023-05-05T07:32:32.444Z,20.73
2023-05-05T07:35:41.289Z,19.90
2023-05-05T07:38:51.071Z,19.70
2023-05-05T07:41:59.291Z,19.91
2023-05-05T07:45:09.106Z,21.54
2023-05-05T07:48:17.378Z,22.71
2023-05-05T07:51:26.459Z,22.94
2023-05-05T07:54:36.923Z,21.92
2023-05-05T07:57:45.175Z,22.64
2023-05-05T08:00:53.652Z,21.94
2023-05-05T08:04:02.203Z,23.68
2023-05-05T08:07:11.922Z,23.42
2023-05-05T08:10:22.859Z,23.21
2023-05-05T08:13:31.330Z,23.80
2023-05-05T08:16:39.685Z,25.11
2023-05-05T08:19:47.792Z,24.42
2023-05-05T08:22:56.277Z,24.73
2023-05-05T08:26:07.163Z,24.67
2023-05-05T08:29:15.355Z,22.37
2023-05-05T08:32:23.760Z,22.03
2023-05-05T08:35:31.930Z,23.96
2023-05-05T08:38:40.272Z,23.55
2023-05-05T08:41:50.780Z,24.70
2023-05-05T08:45:00.179Z,25.72
2023-05-05T08:48:09.785Z,22.67
2023-05-05T08:51:20.711Z,23.27
2023-05-05T08:54:35.920Z,23.05
2023-05-05T08:57:52.861Z,23.95
2023-05-05T09:01:01.804Z,24.64
2023-05-05T09:04:10.960Z,24.87
2023-05-05T09:07:19.882Z,23.88
2023-05-05T09:10:30.134Z,24.79
2023-05-05T09:13:40.068Z,22.71
2023-05-05T09:16:48.495Z,22.94
2023-05-05T09:20:05.734Z,22.66
2023-05-05T09:23:17.255Z,22.06
2023-05-05T09:26:25.739Z,21.74
2023-05-05T09:29:35.865Z,21.77
2023-05-05T09:32:49.814Z,21.07
2023-05-05T09:35:59.639Z,21.07
2023-05-05T09:39:08.334Z,21.75
2023-05-05T09:42:19.818Z,22.16
2023-05-05T09:45:29.514Z,21.92
2023-05-05T09:48:38.166Z,22.59
2023-05-05T09:51:47.998Z,23.54
2023-05-05T09:54:57.582Z,23.69
2023-05-05T09:58:20.261Z,21.92
2023-05-05T10:01:30.009Z,21.98
2023-05-05T10:04:38.335Z,23.12
2023-05-05T10:07:49.172Z,23.52
2023-05-05T10:11:01.053Z,23.74
2023-05-05T10:14:14.077Z,23.75
2023-05-05T10:17:24.944Z,23.14
2023-05-05T10:20:42.418Z,23.70
2023-05-05T10:24:04.655Z,22.87
2023-05-05T10:27:21.303Z,22.53
2023-05-05T10:30:55.590Z,21.77
2023-05-05T10:34:14.654Z,22.16
2023-05-05T10:37:28.264Z,22.96
2023-05-05T10:40:37.098Z,23.23
2023-05-05T10:43:53.774Z,24.39
2023-05-05T10:47:19.153Z,25.61
2023-05-05T10:50:36.914Z,25.73
2023-05-05T10:54:04.069Z,26.26
2023-05-05T10:57:18.356Z,25.36
2023-05-05T11:00:52.984Z,25.01
2023-05-05T11:04:32.221Z,23.45
2023-05-05T11:07:52.162Z,22.66
2023-05-05T11:11:11.843Z,23.95
2023-05-05T11:14:33.291Z,24.04
2023-05-05T11:18:07.342Z,23.20
2023-05-05T11:21:26.735Z,23.84
2023-05-05T11:24:43.155Z,24.04
2023-05-05T11:28:22.475Z,24.42
2023-05-05T11:31:52.798Z,24.86
2023-05-05T11:35:08.850Z,24.99
2023-05-05T11:38:22.787Z,25.19
2023-05-05T11:42:05.313Z,24.18
2023-05-05T11:45:26.459Z,23.62
2023-05-05T11:48:45.608Z,23.53
2023-05-05T11:52:00.674Z,24.08
2023-05-05T11:55:23.200Z,24.89
2023-05-05T11:58:33.455Z,24.53
2023-05-05T12:01:47.621Z,24.45
2023-05-05T12:04:58.321Z,25.29
2023-05-05T12:08:07.557Z,25.50
2023-05-05T12:11:22.024Z,25.48
2023-05-05T12:14:34.370Z,25.03
2023-05-05T12:17:46.269Z,24.95
2023-05-05T12:20:55.836Z,25.37
2023-05-05T12:24:04.044Z,25.32
2023-05-05T12:27:14.590Z,23.76
2023-05-05T12:30:25.708Z,23.52
2023-05-05T12:33:59.601Z,24.34
2023-05-05T12:37:21.091Z,24.27
2023-05-05T12:40:47.708Z,23.34
2023-05-05T12:43:58.604Z,23.48
2023-05-05T12:47:09.987Z,23.99
2023-05-05T12:50:33.945Z,24.24
2023-05-05T12:53:42.097Z,23.64
2023-05-05T12:56:50.283Z,23.94
2023-05-05T12:59:58.454Z,24.33
2023-05-05T13:03:10.492Z,24.73
2023-05-05T13:06:22.253Z,24.46
2023-05-05T13:09:31.324Z,24.45
2023-05-05T13:12:44.424Z,24.50
2023-05-05T13:15:59.006Z,24.15
2023-05-05T13:19:10.193Z,24.39
2023-05-05T13:22:19.022Z,24.44
2023-05-05T13:25:28.468Z,24.52
2023-05-05T13:28:37.373Z,24.61
2023-05-05T13:31:47.025Z,24.34
2023-05-05T13:34:57.857Z,25.08
2023-05-05T13:38:06.094Z,25.67
2023-05-05T13:41:14.251Z,25.01
2023-05-05T13:44:22.580Z,25.54
2023-05-05T13:47:31.180Z,25.19
2023-05-05T13:50:40.839Z,25.08
2023-05-05T13:53:49.192Z,25.66
2023-05-05T13:56:57.875Z,25.48
2023-05-05T14:00:07.902Z,24.12
2023-05-05T14:03:15.998Z,24.47
2023-05-05T14:06:25.964Z,25.01
2023-05-05T14:09:34.172Z,25.38
2023-05-05T14:12:42.238Z,25.46
2023-05-05T14:15:52.547Z,25.59
2023-05-05T14:19:00.705Z,25.20
2023-05-05T14:22:10.573Z,25.50
2023-05-05T14:25:19.211Z,25.37
2023-05-05T14:28:27.328Z,25.70
2023-05-05T14:31:36.282Z,24.45
2023-05-05T14:34:48.342Z,25.00
2023-05-05T14:38:00.276Z,25.07
2023-05-05T14:41:08.367Z,25.11
2023-05-05T14:44:16.713Z,24.85
2023-05-05T14:47:25.590Z,24.65
2023-05-05T14:50:33.681Z,24.62
2023-05-05T14:53:43.398Z,25.10
2023-05-05T14:56:51.664Z,24.98
2023-05-05T14:59:59.704Z,25.08
2023-05-05T15:03:08.064Z,25.39
2023-05-05T15:06:16.486Z,25.09
2023-05-05T15:09:25.925Z,24.90
2023-05-05T15:12:34.384Z,24.76
2023-05-05T15:15:42.569Z,24.75
2023-05-05T15:18:50.803Z,24.67
2023-05-05T15:21:58.955Z,24.79
2023-05-05T15:25:12.412Z,24.70
2023-05-05T15:28:20.892Z,24.41
2023-05-05T15:31:29.182Z,23.92
2023-05-05T15:34:37.554Z,23.73
2023-05-05T15:37:46.148Z,23.85
2023-05-05T15:40:55.960Z,23.62
2023-05-05T15:44:04.872Z,23.63
2023-05-05T15:47:13.315Z,23.58
2023-05-05T15:50:21.831Z,23.39
2023-05-05T15:53:30.468Z,23.56
2023-05-05T15:56:40.268Z,23.57
2023-05-05T15:59:52.241Z,24.10
2023-05-05T16:03:01.073Z,24.16
2023-05-05T16:06:10.308Z,24.65
2023-05-05T16:09:19.472Z,24.48
2023-05-05T16:12:29.276Z,24.12
2023-05-05T16:15:37.936Z,24.29
2023-05-05T16:18:46.029Z,23.93
2023-05-05T16:21:54.337Z,23.50
2023-05-05T16:25:03.050Z,23.22
2023-05-05T16:28:12.594Z,23.37
2023-05-05T16:31:21.060Z,23.26
2023-05-05T16:34:29.505Z,23.09
2023-05-05T16:37:37.917Z,23.20
2023-05-05T16:40:46.040Z,23.31
2023-05-05T16:43:56.518Z,23.48
2023-05-05T16:47:05.954Z,23.51
2023-05-05T16:50:14.086Z,23.10
2023-05-05T16:53:22.201Z,22.78
2023-05-05T16:56:30.770Z,22.64
2023-05-05T16:59:41.687Z,22.40
2023-05-05T17:02:50.159Z,22.32
2023-05-05T17:05:58.821Z,22.20
2023-05-05T17:12:15.824Z,21.87
2023-05-05T17:15:25.622Z,21.78
2023-05-05T17:18:33.964Z,21.66
2023-05-05T17:21:42.871Z,21.58
2023-05-05T17:24:51.203Z,21.34
2023-05-05T17:27:59.428Z,21.23
2023-05-05T17:31:09.320Z,21.13
2023-05-05T17:34:17.872Z,20.98
2023-05-05T17:37:26.179Z,20.80
2023-05-05T17:40:34.508Z,20.70
2023-05-05T17:43:42.671Z,20.53
2023-05-05T17:46:53.702Z,20.39
2023-05-05T17:50:02.356Z,20.29
2023-05-05T17:53:11.500Z,20.24
2023-05-05T17:56:19.660Z,20.02
2023-05-05T17:59:27.841Z,19.90
2023-05-05T18:02:38.584Z,19.77
2023-05-05T18:05:47.023Z,19.64
2023-05-05T18:08:55.291Z,19.54
2023-05-05T18:12:04.573Z,19.30
2023-05-05T18:15:13.434Z,19.15
2023-05-05T18:18:23.557Z,19.10
2023-05-05T18:21:32.029Z,19.01
2023-05-05T18:24:40.331Z,18.94
2023-05-05T18:27:49.003Z,18.70
2023-05-05T18:30:57.419Z,18.58
2023-05-05T18:34:07.493Z,18.63
2023-05-05T18:37:16.062Z,18.48
2023-05-05T18:40:24.603Z,18.51
2023-05-05T18:43:33.069Z,18.69
2023-05-05T18:46:43.067Z,18.50
2023-05-05T18:49:52.752Z,18.30
2023-05-05T18:53:01.206Z,18.05
2023-05-05T18:56:09.402Z,17.96
2023-05-05T18:59:17.949Z,17.97
2023-05-05T19:02:26.377Z,18.20
2023-05-05T19:05:36.202Z,18.44
2023-05-05T19:08:45.369Z,17.73
2023-05-05T19:11:53.882Z,14.23
2023-05-05T19:15:02.579Z,13.51
2023-05-05T19:18:11.640Z,13.09
2023-05-05T19:21:21.919Z,12.75
2023-05-05T19:24:30.528Z,12.32
2023-05-05T19:27:39.119Z,11.82
2023-05-05T19:30:48.696Z,11.77
2023-05-05T19:34:00.904Z,11.75
2023-05-05T19:37:11.475Z,11.73
2023-05-05T19:40:20.710Z,11.75
2023-05-05T19:43:29.463Z,11.74
2023-05-05T19:46:38.574Z,11.82
2023-05-05T19:49:47.676Z,11.93
2023-05-05T19:52:58.097Z,12.03
2023-05-05T19:56:07.452Z,12.04
2023-05-05T19:59:16.179Z,12.01
2023-05-05T20:02:26.619Z,12.04
2023-05-05T20:05:35.774Z,12.10
2023-05-05T20:08:47.073Z,12.28
2023-05-05T20:11:57.430Z,12.23
2023-05-05T20:15:06.662Z,12.26
2023-05-05T20:18:15.150Z,12.39
2023-05-05T20:21:23.879Z,12.41
2023-05-05T20:24:34.432Z,12.42
2023-05-05T20:27:43.553Z,12.46
2023-05-05T20:30:52.372Z,12.43
2023-05-05T20:34:01.356Z,12.30
2023-05-05T20:37:11.737Z,12.17
2023-05-05T20:40:23.721Z,12.16
2023-05-05T20:43:32.240Z,12.31
2023-05-05T20:46:41.108Z,12.19
2023-05-05T20:49:49.968Z,12.20
2023-05-05T20:52:58.465Z,12.31
2023-05-05T20:56:09.462Z,12.31
2023-05-05T20:59:18.477Z,12.39
2023-05-05T21:02:27.440Z,12.36
2023-05-05T21:05:37.476Z,12.38
2023-05-05T21:08:47.146Z,12.54
2023-05-05T21:11:56.968Z,12.59
2023-05-05T21:15:07.698Z,12.61
2023-05-05T21:18:16.348Z,12.60
2023-05-05T21:21:25.026Z,12.55
2023-05-05T21:24:33.587Z,12.54
2023-05-05T21:27:43.886Z,12.49
2023-05-05T21:34:04.576Z,12.53
2023-05-05T21:37:13.643Z,12.54
2023-05-05T21:40:22.773Z,12.53
2023-05-05T21:43:33.016Z,12.69
2023-05-05T21:46:41.643Z,12.63
2023-05-05T21:49:50.400Z,12.58
2023-05-05T21:52:59.190Z,12.48
2023-05-05T21:56:09.130Z,12.56
2023-05-05T21:59:19.480Z,12.57
2023-05-05T22:02:28.309Z,12.42
2023-05-05T22:05:37.116Z,12.41
2023-05-05T22:08:45.942Z,12.33
2023-05-05T22:11:54.583Z,12.50
2023-05-05T22:15:04.744Z,12.54
2023-05-05T22:18:13.475Z,12.48
2023-05-05T22:21:22.645Z,12.56
2023-05-05T22:24:31.671Z,12.56
2023-05-05T22:27:41.449Z,12.48
2023-05-05T22:30:51.384Z,12.48
2023-05-05T22:34:00.155Z,12.42
2023-05-05T22:37:10.071Z,12.21
2023-05-05T22:40:18.673Z,12.20
2023-05-05T22:43:27.339Z,12.15
2023-05-05T22:46:37.450Z,12.20
2023-05-05T22:49:46.851Z,12.23
2023-05-05T22:52:55.550Z,12.15
2023-05-05T22:56:04.723Z,12.14
2023-05-05T22:59:13.627Z,12.15
2023-05-05T23:02:26.540Z,11.98
2023-05-05T23:05:36.080Z,11.73
2023-05-05T23:08:44.934Z,11.65
2023-05-05T23:11:53.571Z,11.67
2023-05-05T23:15:02.442Z,11.64
2023-05-05T23:18:12.503Z,11.63
2023-05-05T23:21:21.343Z,11.58
2023-05-05T23:24:30.832Z,11.75
2023-05-05T23:27:41.086Z,11.70
2023-05-05T23:30:50.449Z,11.61
2023-05-05T23:34:01.006Z,11.45
2023-05-05T23:37:09.745Z,11.44
2023-05-05T23:40:18.577Z,11.42
2023-05-05T23:43:27.418Z,11.45
2023-05-05T23:46:36.297Z,11.54
2023-05-05T23:49:46.513Z,11.57
2023-05-05T23:52:55.375Z,11.66
2023-05-05T23:56:04.114Z,11.63
2023-05-05T23:59:12.649Z,11.65
